createdAt,value
2019-01-16T00:00:38.742Z,1.20
2019-01-16T00:03:25.460Z,1.00
2019-01-16T00:06:16.666Z,1.10
2019-01-16T00:08:57.853Z,1.53
2019-01-16T00:11:44.127Z,1.40
2019-01-16T00:14:31.163Z,1.60
2019-01-16T00:17:19.303Z,1.90
2019-01-16T00:20:05.842Z,1.30
2019-01-16T00:22:50.919Z,1.70
2019-01-16T00:25:44.209Z,1.67
2019-01-16T00:28:31.059Z,1.43
2019-01-16T00:31:21.596Z,1.77
2019-01-16T00:34:10.923Z,2.97
2019-01-16T00:36:57.839Z,2.60
2019-01-16T00:39:40.389Z,3.30
2019-01-16T00:42:27.058Z,3.20
2019-01-16T00:45:15.260Z,3.73
2019-01-16T00:47:51.874Z,2.77
2019-01-16T00:50:38.178Z,3.83
2019-01-16T00:53:32.359Z,4.97
2019-01-16T00:56:08.213Z,5.17
2019-01-16T00:59:00.464Z,3.53
2019-01-16T01:02:03.957Z,4.63
2019-01-16T01:04:55.243Z,4.97
2019-01-16T01:07:35.280Z,4.10
2019-01-16T01:10:17.217Z,4.07
2019-01-16T01:13:17.655Z,3.60
2019-01-16T01:15:58.390Z,4.63
2019-01-16T01:18:44.967Z,4.43
2019-01-16T01:21:32.646Z,5.50
2019-01-16T01:24:26.241Z,4.47
2019-01-16T01:27:13.917Z,4.20
2019-01-16T01:29:55.596Z,4.50
2019-01-16T01:32:53.938Z,4.20
2019-01-16T01:35:40.745Z,5.13
2019-01-16T01:38:30.285Z,5.27
2019-01-16T01:41:16.927Z,6.93
2019-01-16T01:43:58.010Z,6.47
2019-01-16T01:46:40.310Z,7.17
2019-01-16T01:49:26.981Z,6.50
2019-01-16T01:52:21.761Z,7.17
2019-01-16T01:55:16.334Z,6.50
2019-01-16T01:57:56.770Z,7.00
2019-01-16T02:00:54.028Z,7.80
2019-01-16T02:03:40.643Z,6.50
2019-01-16T02:06:28.366Z,7.33
2019-01-16T02:09:13.849Z,7.17
2019-01-16T02:12:00.701Z,5.90
2019-01-16T02:14:48.493Z,6.67
2019-01-16T02:17:45.290Z,6.27
2019-01-16T02:20:29.602Z,5.20
2019-01-16T02:23:24.390Z,5.77
2019-01-16T02:26:20.116Z,5.70
2019-01-16T02:29:18.775Z,4.57
2019-01-16T02:32:02.344Z,7.80
2019-01-16T02:34:55.461Z,7.10
2019-01-16T02:37:41.290Z,6.40
2019-01-16T02:40:20.811Z,6.00
2019-01-16T02:43:08.767Z,6.27
2019-01-16T02:46:01.002Z,6.33
2019-01-16T02:48:36.506Z,6.70
2019-01-16T02:51:23.040Z,8.17
2019-01-16T02:54:13.846Z,7.43
2019-01-16T02:56:57.476Z,8.13
2019-01-16T02:59:33.307Z,7.00
2019-01-16T03:02:11.661Z,6.33
2019-01-16T03:04:58.475Z,8.60
2019-01-16T03:07:49.242Z,5.53
2019-01-16T03:10:25.546Z,6.87
2019-01-16T03:13:13.691Z,7.37
2019-01-16T03:16:00.345Z,6.13
2019-01-16T03:18:39.808Z,7.70
2019-01-16T03:21:26.650Z,7.33
2019-01-16T03:24:07.722Z,6.90
2019-01-16T03:26:42.351Z,6.27
2019-01-16T03:29:39.129Z,7.00
2019-01-16T03:32:29.698Z,7.07
2019-01-16T03:35:04.911Z,5.70
2019-01-16T03:37:52.855Z,6.33
2019-01-16T03:40:39.887Z,5.80
2019-01-16T03:43:25.367Z,6.03
2019-01-16T03:46:22.069Z,5.30
2019-01-16T03:49:14.028Z,6.00
2019-01-16T03:51:59.585Z,6.27
2019-01-16T03:55:02.893Z,5.70
2019-01-16T03:57:40.887Z,5.07
2019-01-16T04:00:33.850Z,6.87
2019-01-16T04:03:27.420Z,5.03
2019-01-16T04:06:23.133Z,6.83
2019-01-16T04:09:09.649Z,6.90
2019-01-16T04:11:56.081Z,5.80
2019-01-16T04:14:47.977Z,5.70
2019-01-16T04:17:33.188Z,6.13
2019-01-16T04:20:13.860Z,6.57
2019-01-16T04:23:00.134Z,7.00
2019-01-16T04:25:40.389Z,7.17
2019-01-16T04:28:27.080Z,4.93
2019-01-16T04:31:03.875Z,5.57
2019-01-16T04:33:51.225Z,6.60
2019-01-16T04:36:37.013Z,5.93
2019-01-16T04:39:31.195Z,7.07
2019-01-16T04:42:07.515Z,8.17
2019-01-16T04:44:48.680Z,6.43
2019-01-16T04:47:35.253Z,6.63
2019-01-16T04:50:16.839Z,7.57
2019-01-16T04:53:17.368Z,7.30
2019-01-16T04:56:03.517Z,7.67
2019-01-16T04:58:49.723Z,8.73
2019-01-16T05:01:36.670Z,7.80
2019-01-16T05:04:24.099Z,8.07
2019-01-16T05:07:10.895Z,6.07
2019-01-16T05:10:17.306Z,8.57
2019-01-16T05:12:55.490Z,8.60
2019-01-16T05:15:41.811Z,7.60
2019-01-16T05:18:32.797Z,7.57
2019-01-16T05:21:21.225Z,7.17
2019-01-16T05:24:09.798Z,9.50
2019-01-16T05:26:49.606Z,7.60
2019-01-16T05:29:37.310Z,8.07
2019-01-16T05:32:30.213Z,10.70
2019-01-16T05:35:16.732Z,9.07
2019-01-16T05:38:03.557Z,10.43
2019-01-16T05:40:43.253Z,10.50
2019-01-16T05:43:34.417Z,10.10
2019-01-16T05:46:28.287Z,11.37
2019-01-16T05:49:18.821Z,12.30
2019-01-16T05:52:04.103Z,12.60
2019-01-16T05:54:50.562Z,12.30
2019-01-16T05:57:47.426Z,12.13
2019-01-16T06:00:53.183Z,11.00
2019-01-16T06:03:50.990Z,12.07
2019-01-16T06:06:41.778Z,11.63
2019-01-16T06:09:38.305Z,12.67
2019-01-16T06:12:24.884Z,9.73
2019-01-16T06:15:08.587Z,13.73
2019-01-16T06:17:55.342Z,12.43
2019-01-16T06:20:41.688Z,13.00
2019-01-16T06:27:20.691Z,12.57
2019-01-16T06:30:09.247Z,13.50
2019-01-16T06:32:56.977Z,11.90
2019-01-16T06:35:58.635Z,12.93
2019-01-16T06:38:46.578Z,11.70
2019-01-16T06:41:31.512Z,13.43
2019-01-16T06:44:16.103Z,11.97
2019-01-16T06:46:55.539Z,9.53
2019-01-16T06:49:42.353Z,12.07
2019-01-16T06:52:25.475Z,12.77
2019-01-16T06:55:11.778Z,12.07
2019-01-16T06:58:06.266Z,11.37
2019-01-16T07:00:48.472Z,12.77
2019-01-16T07:03:36.407Z,10.87
2019-01-16T07:06:23.056Z,11.80
2019-01-16T07:09:20.935Z,12.93
2019-01-16T07:12:14.326Z,12.97
2019-01-16T07:15:00.641Z,10.50
2019-01-16T07:17:40.096Z,10.13
2019-01-16T07:20:22.603Z,12.30
2019-01-16T07:23:09.335Z,12.10
2019-01-16T07:25:55.901Z,11.53
2019-01-16T07:28:42.400Z,11.10
2019-01-16T07:31:40.873Z,13.80
2019-01-16T07:34:17.170Z,13.17
2019-01-16T07:37:13.854Z,12.70
2019-01-16T07:40:10.603Z,11.83
2019-01-16T07:42:53.144Z,12.27
2019-01-16T07:45:39.004Z,11.60
2019-01-16T07:48:36.033Z,13.13
2019-01-16T07:51:14.636Z,13.80
2019-01-16T07:54:11.860Z,12.87
2019-01-16T07:56:50.403Z,13.00
2019-01-16T07:59:41.213Z,12.57
2019-01-16T08:02:38.364Z,12.93
2019-01-16T08:05:28.865Z,13.57
2019-01-16T08:08:15.468Z,15.33
2019-01-16T08:11:02.196Z,14.07
2019-01-16T08:13:45.098Z,14.70
2019-01-16T08:16:42.458Z,14.20
2019-01-16T08:19:30.535Z,13.67
2019-01-16T08:22:21.607Z,12.90
2019-01-16T08:25:11.138Z,14.73
2019-01-16T08:27:57.903Z,12.27
2019-01-16T08:30:55.259Z,13.83
2019-01-16T08:33:37.232Z,12.80
2019-01-16T08:36:20.227Z,13.67
2019-01-16T08:39:11.053Z,13.20
2019-01-16T08:42:04.859Z,13.20
2019-01-16T08:44:42.208Z,11.53
2019-01-16T08:47:28.856Z,12.70
2019-01-16T08:50:10.136Z,13.67
2019-01-16T08:52:56.861Z,15.03
2019-01-16T08:55:43.757Z,15.67
2019-01-16T08:58:28.010Z,15.27
2019-01-16T09:01:14.121Z,15.93
2019-01-16T09:04:00.043Z,16.63
2019-01-16T09:06:50.488Z,15.57
2019-01-16T09:09:29.168Z,16.10
2019-01-16T09:12:16.227Z,16.60
2019-01-16T09:15:09.072Z,15.60
2019-01-16T09:17:59.584Z,17.27
2019-01-16T09:20:46.335Z,16.37
2019-01-16T09:23:43.179Z,16.90
2019-01-16T09:26:30.828Z,16.43
2019-01-16T09:29:23.493Z,17.27
2019-01-16T09:32:15.860Z,18.13
2019-01-16T09:35:03.653Z,14.60
2019-01-16T09:37:49.979Z,18.60
2019-01-16T09:40:31.685Z,19.13
2019-01-16T09:43:14.034Z,18.97
2019-01-16T09:46:02.033Z,20.10
2019-01-16T09:48:52.567Z,18.23
2019-01-16T09:51:43.949Z,19.90
2019-01-16T09:54:33.728Z,20.57
2019-01-16T09:57:21.682Z,20.87
2019-01-16T10:00:08.683Z,19.27
2019-01-16T10:02:56.380Z,21.00
2019-01-16T10:05:36.875Z,19.20
2019-01-16T10:08:23.592Z,20.23
2019-01-16T10:11:22.233Z,21.63
2019-01-16T10:14:03.658Z,20.93
2019-01-16T10:16:44.170Z,24.10
2019-01-16T10:19:30.939Z,23.23
2019-01-16T10:22:14.928Z,24.40
2019-01-16T10:24:51.861Z,22.33
2019-01-16T10:27:40.878Z,24.07
2019-01-16T10:30:35.771Z,24.13
2019-01-16T10:33:14.241Z,24.50
2019-01-16T10:35:49.655Z,28.30
2019-01-16T10:38:56.020Z,24.20
2019-01-16T10:41:58.795Z,25.50
2019-01-16T10:44:33.983Z,27.30
2019-01-16T10:47:24.469Z,28.30
2019-01-16T10:50:11.049Z,31.33
2019-01-16T10:52:57.603Z,27.03
2019-01-16T10:55:51.770Z,24.87
2019-01-16T10:58:38.480Z,27.33
2019-01-16T11:01:26.522Z,26.27
2019-01-16T11:04:14.542Z,28.07
2019-01-16T11:07:11.874Z,22.17
2019-01-16T11:09:58.757Z,24.63
2019-01-16T11:12:46.734Z,23.77
2019-01-16T11:15:23.650Z,20.07
2019-01-16T11:18:09.234Z,23.27
2019-01-16T11:21:00.043Z,18.40
2019-01-16T11:23:58.522Z,20.80
2019-01-16T11:26:40.215Z,24.63
2019-01-16T11:29:30.203Z,21.57
2019-01-16T11:32:16.706Z,20.53
2019-01-16T11:35:00.341Z,20.80
2019-01-16T11:37:47.076Z,21.73
2019-01-16T11:40:44.047Z,21.87
2019-01-16T11:43:31.119Z,19.87
2019-01-16T11:46:22.127Z,20.57
2019-01-16T11:49:08.373Z,22.57
2019-01-16T11:52:11.728Z,21.07
2019-01-16T11:54:58.427Z,22.80
2019-01-16T11:57:34.600Z,23.13
2019-01-16T12:00:29.192Z,20.47
2019-01-16T12:03:17.114Z,18.43
2019-01-16T12:06:03.840Z,21.27
2019-01-16T12:08:45.288Z,19.13
2019-01-16T12:11:30.499Z,23.10
2019-01-16T12:14:25.093Z,19.13
2019-01-16T12:17:24.611Z,22.30
2019-01-16T12:20:21.856Z,18.60
2019-01-16T12:23:15.505Z,20.33
2019-01-16T12:25:53.379Z,18.53
2019-01-16T12:28:41.073Z,18.97
2019-01-16T12:31:27.569Z,16.97
2019-01-16T12:34:30.567Z,19.67
2019-01-16T12:37:17.462Z,18.23
2019-01-16T12:40:23.443Z,16.67
2019-01-16T12:43:14.708Z,17.53
2019-01-16T12:45:53.885Z,18.37
2019-01-16T12:48:40.800Z,17.90
2019-01-16T12:51:33.721Z,18.23
2019-01-16T12:54:30.177Z,18.00
2019-01-16T12:57:24.546Z,18.83
2019-01-16T13:00:12.519Z,18.23
2019-01-16T13:02:52.059Z,16.60
2019-01-16T13:05:35.239Z,20.47
2019-01-16T13:08:21.153Z,19.10
2019-01-16T13:11:07.933Z,19.43
2019-01-16T13:13:56.844Z,16.70
2019-01-16T13:16:57.074Z,17.50
2019-01-16T13:19:45.318Z,18.33
2019-01-16T13:22:37.763Z,16.87
2019-01-16T13:25:24.535Z,16.73
2019-01-16T13:28:26.141Z,16.27
2019-01-16T13:31:13.762Z,15.77
2019-01-16T13:33:55.202Z,17.10
2019-01-16T13:36:49.017Z,14.93
2019-01-16T13:39:35.835Z,15.03
2019-01-16T13:42:32.295Z,14.43
2019-01-16T13:45:19.963Z,13.90
2019-01-16T13:48:06.815Z,15.43
2019-01-16T13:50:53.523Z,16.23
2019-01-16T13:53:53.544Z,14.67
2019-01-16T13:56:37.384Z,14.80
2019-01-16T13:59:43.858Z,12.70
2019-01-16T14:02:34.764Z,12.77
2019-01-16T14:05:31.539Z,13.23
2019-01-16T14:08:08.024Z,12.00
2019-01-16T14:10:48.506Z,13.83
2019-01-16T14:13:42.186Z,13.27
2019-01-16T14:16:26.576Z,11.30
2019-01-16T14:19:09.340Z,13.23
2019-01-16T14:21:55.040Z,13.10
2019-01-16T14:24:35.797Z,10.93
2019-01-16T14:27:42.215Z,11.57
2019-01-16T14:30:31.920Z,10.97
2019-01-16T14:33:13.378Z,12.70
2019-01-16T14:36:04.192Z,11.37
2019-01-16T14:38:45.475Z,9.87
2019-01-16T14:41:37.297Z,11.17
2019-01-16T14:44:24.008Z,10.13
2019-01-16T14:47:23.620Z,10.17
2019-01-16T14:50:03.467Z,9.60
2019-01-16T14:52:48.900Z,10.30
2019-01-16T14:55:32.046Z,9.73
2019-01-16T14:58:37.798Z,11.07
2019-01-16T15:01:31.802Z,10.70
2019-01-16T15:04:24.347Z,11.40
2019-01-16T15:07:10.919Z,9.47
2019-01-16T15:09:57.686Z,11.87
2019-01-16T15:12:53.792Z,11.50
2019-01-16T15:15:45.731Z,10.17
2019-01-16T15:18:32.228Z,11.23
2019-01-16T15:21:20.167Z,10.40
2019-01-16T15:24:23.149Z,13.00
2019-01-16T15:27:13.759Z,8.97
2019-01-16T15:30:08.257Z,11.63
2019-01-16T15:32:47.334Z,12.20
2019-01-16T15:35:26.645Z,8.50
2019-01-16T15:38:06.215Z,12.93
2019-01-16T15:40:52.544Z,8.40
2019-01-16T15:43:30.690Z,11.80
2019-01-16T15:46:19.321Z,12.70
2019-01-16T15:49:06.343Z,11.83
2019-01-16T15:51:52.947Z,13.07
2019-01-16T15:54:48.288Z,11.63
2019-01-16T15:57:48.598Z,10.63
2019-01-16T16:00:32.939Z,10.77
2019-01-16T16:03:15.822Z,11.13
2019-01-16T16:06:09.492Z,12.17
2019-01-16T16:08:56.138Z,13.60
2019-01-16T16:11:32.757Z,10.97
2019-01-16T16:14:11.187Z,12.60
2019-01-16T16:17:08.588Z,12.37
2019-01-16T16:19:55.600Z,11.80
2019-01-16T16:22:38.164Z,11.87
2019-01-16T16:25:28.404Z,9.30
2019-01-16T16:28:15.420Z,12.00
2019-01-16T16:30:57.010Z,10.27
2019-01-16T16:33:43.821Z,11.80
2019-01-16T16:36:34.596Z,10.23
2019-01-16T16:39:17.035Z,10.83
2019-01-16T16:42:02.823Z,12.17
2019-01-16T16:44:42.056Z,11.13
2019-01-16T16:47:33.165Z,5.63
2019-01-16T16:50:19.657Z,8.37
2019-01-16T16:53:06.216Z,9.50
2019-01-16T16:56:10.710Z,9.77
2019-01-16T16:58:57.708Z,8.80
2019-01-16T17:01:48.730Z,9.07
2019-01-16T17:04:29.413Z,7.57
2019-01-16T17:07:35.766Z,9.13
2019-01-16T17:10:13.225Z,8.43
2019-01-16T17:12:59.848Z,6.27
2019-01-16T17:16:03.264Z,6.47
2019-01-16T17:19:00.568Z,6.67
2019-01-16T17:21:44.055Z,7.00
2019-01-16T17:24:43.750Z,7.73
2019-01-16T17:27:25.561Z,7.70
2019-01-16T17:30:16.680Z,9.10
2019-01-16T17:33:01.949Z,8.37
2019-01-16T17:35:42.168Z,7.30
2019-01-16T17:38:27.053Z,7.00
2019-01-16T17:41:20.953Z,7.97
2019-01-16T17:44:02.337Z,9.90
2019-01-16T17:46:50.274Z,8.40
2019-01-16T17:49:36.898Z,8.73
2019-01-16T17:52:31.174Z,9.83
2019-01-16T17:55:34.248Z,13.13
2019-01-16T17:58:33.258Z,8.23
2019-01-16T18:01:27.057Z,15.50
2019-01-16T18:04:30.434Z,12.57
2019-01-16T18:07:17.346Z,13.93
2019-01-16T18:10:17.038Z,14.87
2019-01-16T18:12:58.753Z,13.27
2019-01-16T18:15:49.266Z,14.00
2019-01-16T18:18:35.963Z,13.33
2019-01-16T18:21:22.569Z,14.47
2019-01-16T18:24:11.941Z,15.20
2019-01-16T18:26:59.425Z,18.77
2019-01-16T18:29:51.060Z,15.17
2019-01-16T18:32:39.131Z,13.13
2019-01-16T18:35:16.999Z,16.20
2019-01-16T18:38:04.673Z,16.80
2019-01-16T18:40:51.580Z,19.50
2019-01-16T18:43:31.325Z,19.30
2019-01-16T18:46:18.027Z,16.30
2019-01-16T18:49:05.053Z,18.17
2019-01-16T18:51:52.789Z,16.20
2019-01-16T18:54:39.799Z,21.73
2019-01-16T18:57:30.813Z,20.83
2019-01-16T19:00:17.373Z,15.63
2019-01-16T19:02:59.719Z,18.40
2019-01-16T19:05:37.318Z,15.23
2019-01-16T19:08:37.276Z,20.27
2019-01-16T19:11:16.622Z,18.07
2019-01-16T19:14:03.388Z,22.13
2019-01-16T19:16:50.031Z,21.13
2019-01-16T19:19:43.873Z,18.80
2019-01-16T19:22:19.884Z,18.37
2019-01-16T19:25:05.409Z,15.50
2019-01-16T19:28:00.571Z,16.43
2019-01-16T19:30:47.429Z,19.80
2019-01-16T19:33:34.657Z,17.43
2019-01-16T19:36:22.692Z,20.77
2019-01-16T19:39:09.705Z,16.23
2019-01-16T19:41:56.150Z,16.70
2019-01-16T19:44:39.953Z,16.23
2019-01-16T19:47:26.397Z,19.60
2019-01-16T19:50:26.519Z,18.20
2019-01-16T19:53:05.506Z,17.70
2019-01-16T19:55:59.382Z,18.63
2019-01-16T19:58:46.192Z,19.70
2019-01-16T20:01:52.273Z,21.57
2019-01-16T20:04:58.318Z,14.77
2019-01-16T20:07:42.165Z,18.70
2019-01-16T20:10:36.987Z,21.93
2019-01-16T20:13:24.955Z,16.33
2019-01-16T20:16:15.720Z,17.10
2019-01-16T20:19:01.764Z,16.10
2019-01-16T20:21:42.053Z,17.13
2019-01-16T20:24:22.412Z,18.10
2019-01-16T20:27:08.509Z,16.33
2019-01-16T20:29:55.354Z,17.57
2019-01-16T20:32:32.381Z,13.90
2019-01-16T20:35:22.955Z,19.93
2019-01-16T20:38:15.139Z,14.00
2019-01-16T20:41:01.739Z,18.67
2019-01-16T20:43:52.860Z,15.87
2019-01-16T20:46:34.347Z,13.07
2019-01-16T20:49:22.291Z,16.43
2019-01-16T20:52:22.389Z,15.57
2019-01-16T20:55:22.300Z,14.20
2019-01-16T20:58:12.771Z,15.83
2019-01-16T21:01:06.913Z,17.30
2019-01-16T21:03:47.933Z,14.50
2019-01-16T21:06:30.398Z,19.23
2019-01-16T21:09:15.215Z,14.67
2019-01-16T21:12:03.449Z,19.03
2019-01-16T21:14:42.343Z,18.83
2019-01-16T21:17:32.917Z,16.23
2019-01-16T21:20:19.943Z,12.30
2019-01-16T21:23:02.049Z,17.57
2019-01-16T21:26:08.638Z,14.03
2019-01-16T21:28:47.542Z,12.63
2019-01-16T21:31:38.047Z,14.47
2019-01-16T21:34:24.753Z,9.40
2019-01-16T21:37:25.096Z,10.90
2019-01-16T21:40:21.791Z,16.27
2019-01-16T21:43:15.363Z,13.00
2019-01-16T21:46:01.904Z,14.23
2019-01-16T21:48:49.522Z,13.23
2019-01-16T21:51:36.550Z,11.37
2019-01-16T21:54:18.573Z,14.17
2019-01-16T21:57:01.743Z,14.73
2019-01-16T22:00:02.118Z,16.83
2019-01-16T22:02:51.848Z,14.73
2019-01-16T22:05:38.255Z,14.07
2019-01-16T22:08:25.709Z,13.03
2019-01-16T22:11:19.482Z,17.03
2019-01-16T22:14:05.837Z,15.03
2019-01-16T22:16:42.461Z,14.97
2019-01-16T22:19:29.179Z,16.90
2019-01-16T22:22:06.864Z,17.80
2019-01-16T22:24:51.998Z,19.50
2019-01-16T22:27:46.129Z,23.63
2019-01-16T22:30:34.470Z,12.23
2019-01-16T22:33:22.112Z,17.20
2019-01-16T22:36:04.707Z,18.23
2019-01-16T22:38:45.736Z,15.57
2019-01-16T22:41:32.502Z,16.73
2019-01-16T22:44:30.779Z,19.50
2019-01-16T22:47:15.805Z,17.63
2019-01-16T22:50:10.139Z,18.37
2019-01-16T22:53:00.654Z,19.77
2019-01-16T22:55:52.313Z,16.77
2019-01-16T22:58:31.181Z,16.30
2019-01-16T23:01:15.173Z,15.47
2019-01-16T23:04:02.035Z,17.63
2019-01-16T23:06:49.775Z,15.50
2019-01-16T23:09:44.879Z,10.97
2019-01-16T23:12:24.214Z,14.83
2019-01-16T23:15:26.600Z,12.83
2019-01-16T23:18:13.581Z,18.67
2019-01-16T23:21:01.299Z,14.67
2019-01-16T23:23:49.843Z,15.80
2019-01-16T23:26:36.400Z,15.97
2019-01-16T23:29:20.425Z,13.67
2019-01-16T23:32:02.622Z,16.33
2019-01-16T23:34:48.996Z,16.83
2019-01-16T23:37:35.599Z,16.10
2019-01-16T23:40:22.724Z,13.90
2019-01-16T23:43:09.083Z,12.87
2019-01-16T23:45:55.687Z,16.23
2019-01-16T23:48:37.046Z,17.43
2019-01-16T23:51:23.474Z,11.17
2019-01-16T23:54:24.072Z,14.83
2019-01-16T23:57:10.574Z,15.90
